createdAt,value
2022-09-22T00:01:37.564Z,10.40
2022-09-22T00:04:08.602Z,10.40
2022-09-22T00:06:40.005Z,10.40
2022-09-22T00:09:11.865Z,10.30
2022-09-22T00:11:43.427Z,10.30
2022-09-22T00:14:16.561Z,10.30
2022-09-22T00:16:47.755Z,10.30
2022-09-22T00:19:19.765Z,10.30
2022-09-22T00:21:49.003Z,10.30
2022-09-22T00:24:19.076Z,10.20
2022-09-22T00:26:47.346Z,10.20
2022-09-22T00:29:17.456Z,10.30
2022-09-22T00:31:46.559Z,10.20
2022-09-22T00:34:18.600Z,10.10
2022-09-22T00:36:47.328Z,10.10
2022-09-22T00:39:17.361Z,10.10
2022-09-22T00:41:49.282Z,10.00
2022-09-22T00:44:38.493Z,10.00
2022-09-22T00:47:19.467Z,10.00
2022-09-22T00:49:55.225Z,9.90
2022-09-22T00:52:29.611Z,9.70
2022-09-22T00:55:03.041Z,9.60
2022-09-22T00:57:36.403Z,9.50
2022-09-22T01:00:10.225Z,9.40
2022-09-22T01:02:38.795Z,9.30
2022-09-22T01:05:08.834Z,9.20
2022-09-22T01:07:38.074Z,9.10
2022-09-22T01:10:07.626Z,9.00
2022-09-22T01:12:38.054Z,8.90
2022-09-22T01:15:27.129Z,8.90
2022-09-22T01:18:15.628Z,8.90
2022-09-22T01:21:33.734Z,8.80
2022-09-22T01:24:59.853Z,8.80
2022-09-22T01:28:30.345Z,8.60
2022-09-22T01:31:07.391Z,8.60
2022-09-22T01:33:45.510Z,8.50
2022-09-22T01:36:26.702Z,8.50
2022-09-22T01:39:06.356Z,8.50
2022-09-22T01:41:51.839Z,8.40
2022-09-22T01:44:32.518Z,8.40
2022-09-22T01:47:10.576Z,8.30
2022-09-22T01:49:47.267Z,8.30
2022-09-22T01:52:21.756Z,8.30
2022-09-22T01:54:56.476Z,8.30
2022-09-22T01:57:31.977Z,8.30
2022-09-22T02:00:05.752Z,8.30
2022-09-22T02:02:42.194Z,8.20
2022-09-22T02:05:19.532Z,8.20
2022-09-22T02:07:55.401Z,8.10
2022-09-22T02:10:35.978Z,8.10
2022-09-22T02:13:05.462Z,8.00
2022-09-22T02:15:51.422Z,8.10
2022-09-22T02:18:26.737Z,8.10
2022-09-22T02:20:54.976Z,8.20
2022-09-22T02:23:23.062Z,8.10
2022-09-22T02:25:52.994Z,8.20
2022-09-22T02:28:25.205Z,8.20
2022-09-22T02:31:18.676Z,8.20
2022-09-22T02:33:47.232Z,8.30
2022-09-22T02:36:37.600Z,8.30
2022-09-22T02:39:13.475Z,8.30
2022-09-22T02:42:00.830Z,8.30
2022-09-22T02:44:36.465Z,8.30
2022-09-22T02:47:11.788Z,8.30
2022-09-22T02:49:43.957Z,8.30
2022-09-22T02:52:14.740Z,8.20
2022-09-22T02:54:42.896Z,8.20
2022-09-22T02:57:11.319Z,8.10
2022-09-22T02:59:39.480Z,8.10
2022-09-22T03:02:07.571Z,8.00
2022-09-22T03:04:36.011Z,8.00
2022-09-22T03:07:06.910Z,7.90
2022-09-22T03:09:35.005Z,7.90
2022-09-22T03:12:04.112Z,7.90
2022-09-22T03:14:32.205Z,7.80
2022-09-22T03:17:00.231Z,7.90
2022-09-22T03:19:28.410Z,8.00
2022-09-22T03:21:56.463Z,7.90
2022-09-22T03:24:25.858Z,7.90
2022-09-22T03:26:53.849Z,7.80
2022-09-22T03:29:21.818Z,7.80
2022-09-22T03:31:50.070Z,7.70
2022-09-22T03:34:18.167Z,7.70
2022-09-22T03:36:47.040Z,7.60
2022-09-22T03:39:15.143Z,7.50
2022-09-22T03:41:44.808Z,7.50
2022-09-22T03:44:12.784Z,7.50
2022-09-22T03:46:40.831Z,7.40
2022-09-22T03:49:09.398Z,7.50
2022-09-22T03:51:37.389Z,7.50
2022-09-22T03:54:06.598Z,7.50
2022-09-22T03:56:34.750Z,7.50
2022-09-22T03:59:04.835Z,7.60
2022-09-22T04:01:33.876Z,7.70
2022-09-22T04:04:02.226Z,7.70
2022-09-22T04:06:30.248Z,7.70
2022-09-22T04:08:58.327Z,7.70
2022-09-22T04:11:26.795Z,7.70
2022-09-22T04:13:55.134Z,7.70
2022-09-22T04:16:24.789Z,7.70
2022-09-22T04:18:52.797Z,7.70
2022-09-22T04:21:20.777Z,7.60
2022-09-22T04:23:48.989Z,7.50
2022-09-22T04:26:17.272Z,7.50
2022-09-22T04:28:45.518Z,7.40
2022-09-22T04:31:13.825Z,7.30
2022-09-22T04:33:44.746Z,7.20
2022-09-22T04:36:13.060Z,7.20
2022-09-22T04:38:41.471Z,7.00
2022-09-22T04:41:09.446Z,7.00
2022-09-22T04:43:37.521Z,7.00
2022-09-22T04:46:05.945Z,6.90
2022-09-22T04:48:33.961Z,6.80
2022-09-22T04:51:03.376Z,6.80
2022-09-22T04:53:31.423Z,6.70
2022-09-22T04:55:59.448Z,6.70
2022-09-22T04:58:27.487Z,6.70
2022-09-22T05:00:56.303Z,6.70
2022-09-22T05:03:24.449Z,6.60
2022-09-22T05:05:52.611Z,6.60
2022-09-22T05:08:22.363Z,6.60
2022-09-22T05:10:50.396Z,6.60
2022-09-22T05:13:19.115Z,6.60
2022-09-22T05:15:47.102Z,6.70
2022-09-22T05:18:15.133Z,6.70
2022-09-22T05:20:45.811Z,6.70
2022-09-22T05:23:13.987Z,6.80
2022-09-22T05:25:44.260Z,6.80
2022-09-22T05:28:12.273Z,6.90
2022-09-22T05:30:40.300Z,6.90
2022-09-22T05:33:08.383Z,7.00
2022-09-22T05:35:37.163Z,7.00
2022-09-22T05:38:05.354Z,7.10
2022-09-22T05:40:33.403Z,7.20
2022-09-22T05:43:02.840Z,7.30
2022-09-22T05:45:31.214Z,7.30
2022-09-22T05:47:59.387Z,7.50
2022-09-22T05:50:27.943Z,7.50
2022-09-22T05:53:04.963Z,7.70
2022-09-22T05:55:33.411Z,7.90
2022-09-22T05:58:03.363Z,8.00
2022-09-22T06:00:32.095Z,8.20
2022-09-22T06:03:00.268Z,8.50
2022-09-22T06:05:28.389Z,8.70
2022-09-22T06:08:03.471Z,8.90
2022-09-22T06:10:32.472Z,9.10
2022-09-22T06:13:02.919Z,9.30
2022-09-22T06:15:33.909Z,9.50
2022-09-22T06:18:02.989Z,9.60
2022-09-22T06:20:31.024Z,9.60
2022-09-22T06:22:59.921Z,9.80
2022-09-22T06:25:29.190Z,9.90
2022-09-22T06:28:05.618Z,10.00
2022-09-22T06:30:35.712Z,10.10
2022-09-22T06:33:03.853Z,10.20
2022-09-22T06:35:37.546Z,10.10
2022-09-22T06:38:07.527Z,10.00
2022-09-22T06:40:37.176Z,10.00
2022-09-22T06:43:10.517Z,10.10
2022-09-22T06:45:38.794Z,10.10
2022-09-22T06:48:10.024Z,10.10
2022-09-22T06:50:40.687Z,10.10
2022-09-22T06:53:12.244Z,10.20
2022-09-22T06:55:43.276Z,10.50
2022-09-22T06:58:14.333Z,10.60
2022-09-22T07:00:44.211Z,10.80
2022-09-22T07:03:20.465Z,10.70
2022-09-22T07:05:56.418Z,10.70
2022-09-22T07:08:26.585Z,10.70
2022-09-22T07:10:56.797Z,10.70
2022-09-22T07:13:28.119Z,10.70
2022-09-22T07:16:02.106Z,10.70
2022-09-22T07:18:30.389Z,10.70
2022-09-22T07:21:05.416Z,10.80
2022-09-22T07:23:35.623Z,11.00
2022-09-22T07:26:04.894Z,11.40
2022-09-22T07:28:36.684Z,11.50
2022-09-22T07:31:06.911Z,11.50
2022-09-22T07:33:35.849Z,11.50
2022-09-22T07:36:08.904Z,11.60
2022-09-22T07:38:37.229Z,11.80
2022-09-22T07:41:08.015Z,11.80
2022-09-22T07:43:37.642Z,11.90
2022-09-22T07:46:07.093Z,12.10
2022-09-22T07:48:38.106Z,12.20
2022-09-22T07:51:12.941Z,12.20
2022-09-22T07:53:44.934Z,12.30
2022-09-22T07:56:15.981Z,12.70
2022-09-22T07:58:51.223Z,12.90
2022-09-22T08:01:21.837Z,12.90
2022-09-22T08:03:50.902Z,13.00
2022-09-22T08:06:23.729Z,13.20
2022-09-22T08:08:56.594Z,13.30
2022-09-22T08:11:28.131Z,13.20
2022-09-22T08:13:59.926Z,13.60
2022-09-22T08:16:31.977Z,13.40
2022-09-22T08:19:03.188Z,13.70
2022-09-22T08:21:35.239Z,13.90
2022-09-22T08:24:04.569Z,13.80
2022-09-22T08:26:33.138Z,13.70
2022-09-22T08:29:02.802Z,13.90
2022-09-22T08:31:31.664Z,14.20
2022-09-22T08:34:00.066Z,14.30
2022-09-22T08:36:29.032Z,14.20
2022-09-22T08:38:57.758Z,14.20
2022-09-22T08:41:39.019Z,14.30
2022-09-22T08:44:23.528Z,14.50
2022-09-22T08:46:54.614Z,14.50
2022-09-22T08:49:46.939Z,14.50
2022-09-22T08:52:27.994Z,14.50
2022-09-22T08:54:59.532Z,14.70
2022-09-22T08:58:00.750Z,14.50
2022-09-22T09:00:42.513Z,14.50
2022-09-22T09:03:29.449Z,14.40
2022-09-22T09:06:11.159Z,14.20
2022-09-22T09:09:27.914Z,14.30
2022-09-22T09:12:40.777Z,14.40
2022-09-22T09:15:29.794Z,14.80
2022-09-22T09:18:07.286Z,14.70
2022-09-22T09:20:42.114Z,14.70
2022-09-22T09:23:18.863Z,15.00
2022-09-22T09:25:54.327Z,15.10
2022-09-22T09:28:32.796Z,15.20
2022-09-22T09:31:12.320Z,15.50
2022-09-22T09:33:59.142Z,15.50
2022-09-22T09:36:33.527Z,15.70
2022-09-22T09:39:13.572Z,15.30
2022-09-22T09:41:46.711Z,15.00
2022-09-22T09:44:25.910Z,14.60
2022-09-22T09:47:07.756Z,14.60
2022-09-22T09:49:37.341Z,14.80
2022-09-22T09:52:12.226Z,14.80
2022-09-22T09:54:43.467Z,15.30
2022-09-22T09:57:14.891Z,15.40
2022-09-22T10:00:03.565Z,15.40
2022-09-22T10:02:36.257Z,15.60
2022-09-22T10:05:20.603Z,15.20
2022-09-22T10:07:54.821Z,15.30
2022-09-22T10:10:35.690Z,15.70
2022-09-22T10:13:34.573Z,15.30
2022-09-22T10:16:20.891Z,15.40
2022-09-22T10:18:51.282Z,15.40
2022-09-22T10:21:23.134Z,15.50
2022-09-22T10:23:53.534Z,15.50
2022-09-22T10:26:26.652Z,15.30
2022-09-22T10:29:19.066Z,15.40
2022-09-22T10:32:15.967Z,15.80
2022-09-22T10:34:46.727Z,15.90
2022-09-22T10:37:21.469Z,15.80
2022-09-22T10:39:52.611Z,15.50
2022-09-22T10:42:34.192Z,15.60
2022-09-22T10:45:07.354Z,15.60
2022-09-22T10:47:58.184Z,15.90
2022-09-22T10:50:48.460Z,16.00
2022-09-22T10:53:37.832Z,16.30
2022-09-22T10:56:21.811Z,16.00
2022-09-22T10:59:19.313Z,16.10
2022-09-22T11:02:03.825Z,16.50
2022-09-22T11:04:49.352Z,16.70
2022-09-22T11:08:08.136Z,16.80
2022-09-22T11:11:07.899Z,17.30
2022-09-22T11:13:53.728Z,17.30
2022-09-22T11:17:00.344Z,17.60
2022-09-22T11:20:06.895Z,17.20
2022-09-22T11:23:07.013Z,17.50
2022-09-22T11:25:58.620Z,17.40
2022-09-22T11:28:57.076Z,17.20
2022-09-22T11:31:43.735Z,17.40
2022-09-22T11:34:50.736Z,17.80
2022-09-22T11:37:38.505Z,18.20
2022-09-22T11:40:34.180Z,17.80
2022-09-22T11:43:31.847Z,17.70
2022-09-22T11:46:11.213Z,17.90
2022-09-22T11:49:00.858Z,18.40
2022-09-22T11:52:03.706Z,18.40
2022-09-22T11:55:02.348Z,18.40
2022-09-22T11:57:38.767Z,18.30
2022-09-22T12:00:17.310Z,18.20
2022-09-22T12:02:55.143Z,18.00
2022-09-22T12:05:30.801Z,17.70
2022-09-22T12:08:06.253Z,17.50
2022-09-22T12:10:38.181Z,17.20
2022-09-22T12:13:15.377Z,17.00
2022-09-22T12:16:02.518Z,17.00
2022-09-22T12:18:43.478Z,16.90
2022-09-22T12:21:33.919Z,16.60
2022-09-22T12:24:08.932Z,16.50
2022-09-22T12:26:40.056Z,17.00
2022-09-22T12:29:25.603Z,17.20
2022-09-22T12:31:59.124Z,17.60
2022-09-22T12:34:32.776Z,17.60
2022-09-22T12:37:12.652Z,17.70
2022-09-22T12:39:44.854Z,17.70
2022-09-22T12:42:23.690Z,17.80
2022-09-22T12:44:58.131Z,17.90
2022-09-22T12:47:33.393Z,17.90
2022-09-22T12:50:07.161Z,18.00
2022-09-22T12:53:02.562Z,18.30
2022-09-22T12:55:41.678Z,18.70
2022-09-22T12:58:41.932Z,18.80
2022-09-22T13:01:35.227Z,18.80
2022-09-22T13:04:22.727Z,19.60
2022-09-22T13:06:57.837Z,19.60
2022-09-22T13:09:30.193Z,20.60
2022-09-22T13:12:28.070Z,21.20
2022-09-22T13:15:16.136Z,22.40
2022-09-22T13:17:47.715Z,21.80
2022-09-22T13:20:21.693Z,20.40
2022-09-22T13:22:51.924Z,20.30
2022-09-22T13:25:27.151Z,19.90
2022-09-22T13:28:16.753Z,19.10
2022-09-22T13:30:47.880Z,19.50
2022-09-22T13:33:25.744Z,20.30
2022-09-22T13:36:03.471Z,21.20
2022-09-22T13:38:37.111Z,20.60
2022-09-22T13:41:12.143Z,19.90
2022-09-22T13:43:44.360Z,19.30
2022-09-22T13:46:23.681Z,19.90
2022-09-22T13:48:56.436Z,21.20
2022-09-22T13:51:27.715Z,22.00
2022-09-22T13:53:58.542Z,22.20
2022-09-22T13:56:27.993Z,23.00
2022-09-22T13:59:01.810Z,23.40
2022-09-22T14:01:31.783Z,23.80
2022-09-22T14:04:00.100Z,24.30
2022-09-22T14:06:34.448Z,24.70
2022-09-22T14:09:04.157Z,24.30
2022-09-22T14:11:33.909Z,24.70
2022-09-22T14:14:04.395Z,25.30
2022-09-22T14:16:39.723Z,25.70
2022-09-22T14:19:15.787Z,25.50
2022-09-22T14:21:52.600Z,25.30
2022-09-22T14:24:21.031Z,25.90
2022-09-22T14:26:52.847Z,26.10
2022-09-22T14:29:28.885Z,26.10
2022-09-22T14:32:02.603Z,25.30
2022-09-22T14:34:34.459Z,24.60
2022-09-22T14:37:17.675Z,24.40
2022-09-22T14:39:46.463Z,24.90
2022-09-22T14:42:22.837Z,25.10
2022-09-22T14:44:53.638Z,25.00
2022-09-22T14:47:28.412Z,25.20
2022-09-22T14:50:19.979Z,25.50
2022-09-22T14:52:58.709Z,24.90
2022-09-22T14:55:39.006Z,24.20
2022-09-22T14:58:15.361Z,23.00
2022-09-22T15:01:12.173Z,23.30
2022-09-22T15:03:44.836Z,23.20
2022-09-22T15:06:15.773Z,23.20
2022-09-22T15:08:52.171Z,23.40
2022-09-22T15:11:20.448Z,24.10
2022-09-22T15:13:51.921Z,24.30
2022-09-22T15:16:40.091Z,24.00
2022-09-22T15:19:13.147Z,23.90
2022-09-22T15:21:46.067Z,22.50
2022-09-22T15:24:22.059Z,21.50
2022-09-22T15:26:50.176Z,20.20
2022-09-22T15:29:18.351Z,19.40
2022-09-22T15:31:47.151Z,18.80
2022-09-22T15:34:16.706Z,18.30
2022-09-22T15:36:48.766Z,17.70
2022-09-22T15:39:23.615Z,17.40
2022-09-22T15:41:53.226Z,17.10
2022-09-22T15:44:21.326Z,16.70
2022-09-22T15:46:54.420Z,16.50
2022-09-22T15:49:26.304Z,16.50
2022-09-22T15:51:55.946Z,16.30
2022-09-22T15:54:27.355Z,16.10
2022-09-22T15:56:57.648Z,16.10
2022-09-22T15:59:28.598Z,16.20
2022-09-22T16:01:59.389Z,16.10
2022-09-22T16:04:30.011Z,16.00
2022-09-22T16:07:02.988Z,15.90
2022-09-22T16:09:32.578Z,15.80
2022-09-22T16:12:00.661Z,15.80
2022-09-22T16:14:28.705Z,15.50
2022-09-22T16:16:56.678Z,15.20
2022-09-22T16:19:24.684Z,15.10
2022-09-22T16:21:55.107Z,15.00
2022-09-22T16:24:23.294Z,14.90
2022-09-22T16:26:53.524Z,14.70
2022-09-22T16:29:22.187Z,14.70
2022-09-22T16:31:51.170Z,14.60
2022-09-22T16:34:19.233Z,14.50
2022-09-22T16:36:47.295Z,14.20
2022-09-22T16:39:15.417Z,14.20
2022-09-22T16:41:47.062Z,14.10
2022-09-22T16:44:16.762Z,14.00
2022-09-22T16:46:44.802Z,13.90
2022-09-22T16:49:16.356Z,13.80
2022-09-22T16:51:48.728Z,13.70
2022-09-22T16:54:19.490Z,13.60
2022-09-22T16:56:50.428Z,13.50
2022-09-22T16:59:22.191Z,13.30
2022-09-22T17:01:51.355Z,13.20
2022-09-22T17:04:20.288Z,13.10
2022-09-22T17:06:49.792Z,12.90
2022-09-22T17:09:19.442Z,12.80
2022-09-22T17:11:49.251Z,12.70
2022-09-22T17:14:23.052Z,12.70
2022-09-22T17:16:53.632Z,12.60
2022-09-22T17:19:24.483Z,12.50
2022-09-22T17:21:55.724Z,12.30
2022-09-22T17:24:25.551Z,12.20
2022-09-22T17:26:56.098Z,12.10
2022-09-22T17:29:27.874Z,11.90
2022-09-22T17:31:59.415Z,11.80
2022-09-22T17:34:29.387Z,11.70
2022-09-22T17:36:58.398Z,11.60
2022-09-22T17:39:28.983Z,11.50
2022-09-22T17:41:57.428Z,11.30
2022-09-22T17:44:30.777Z,11.20
2022-09-22T17:47:16.585Z,11.20
2022-09-22T17:50:02.169Z,11.10
2022-09-22T17:52:47.982Z,11.00
2022-09-22T17:55:25.339Z,10.90
2022-09-22T17:57:56.158Z,10.80
2022-09-22T18:00:26.336Z,10.70
2022-09-22T18:02:55.111Z,10.70
2022-09-22T18:05:27.089Z,10.60
2022-09-22T18:07:58.316Z,10.50
2022-09-22T18:10:33.914Z,10.40
2022-09-22T18:13:04.275Z,10.30
2022-09-22T18:15:33.850Z,10.20
2022-09-22T18:18:01.937Z,10.20
2022-09-22T18:20:30.307Z,10.10
2022-09-22T18:23:00.214Z,10.00
2022-09-22T18:25:28.251Z,9.90
2022-09-22T18:27:56.370Z,9.90
2022-09-22T18:30:24.339Z,9.80
2022-09-22T18:32:54.975Z,9.70
2022-09-22T18:35:24.097Z,9.70
2022-09-22T18:37:52.138Z,9.60
2022-09-22T18:40:20.262Z,9.60
2022-09-22T18:42:48.641Z,9.50
2022-09-22T18:45:16.909Z,9.40
2022-09-22T18:47:44.919Z,9.40
2022-09-22T18:50:14.301Z,9.30
2022-09-22T18:52:45.016Z,9.30
2022-09-22T18:55:14.109Z,9.20
2022-09-22T18:57:42.259Z,9.20
2022-09-22T19:00:14.096Z,9.20
2022-09-22T19:02:42.237Z,9.10
2022-09-22T19:05:10.631Z,8.90
2022-09-22T19:07:44.363Z,8.90
2022-09-22T19:10:14.982Z,8.90
2022-09-22T19:12:43.633Z,8.80
2022-09-22T19:15:16.349Z,8.80
2022-09-22T19:17:46.954Z,8.80
2022-09-22T19:20:18.113Z,8.70
2022-09-22T19:22:49.380Z,8.70
2022-09-22T19:25:18.612Z,8.70
2022-09-22T19:27:46.670Z,8.60
2022-09-22T19:30:15.835Z,8.60
2022-09-22T19:32:46.118Z,8.50
2022-09-22T19:35:14.936Z,8.50
2022-09-22T19:37:43.472Z,8.50
2022-09-22T19:40:18.495Z,8.40
2022-09-22T19:42:47.203Z,8.40
2022-09-22T19:45:15.918Z,8.40
2022-09-22T19:47:43.980Z,8.30
2022-09-22T19:50:11.999Z,8.20
2022-09-22T19:52:40.539Z,8.20
2022-09-22T19:55:12.178Z,8.20
2022-09-22T19:57:41.609Z,8.20
2022-09-22T20:00:17.172Z,8.20
2022-09-22T20:02:45.779Z,8.20
2022-09-22T20:05:21.331Z,8.10
2022-09-22T20:07:49.668Z,8.00
2022-09-22T20:10:22.485Z,8.00
2022-09-22T20:12:51.243Z,7.90
2022-09-22T20:15:20.533Z,7.90
2022-09-22T20:17:48.959Z,7.90
2022-09-22T20:20:19.960Z,7.90
2022-09-22T20:22:53.049Z,7.80
2022-09-22T20:25:26.856Z,7.70
2022-09-22T20:27:56.118Z,7.70
2022-09-22T20:30:25.418Z,7.70
2022-09-22T20:32:54.378Z,7.60
2022-09-22T20:35:22.620Z,7.70
2022-09-22T20:37:51.681Z,7.70
2022-09-22T20:40:23.616Z,7.60
2022-09-22T20:42:55.208Z,7.60
2022-09-22T20:45:24.439Z,7.60
2022-09-22T20:47:52.837Z,7.60
2022-09-22T20:50:21.586Z,7.50
2022-09-22T20:52:50.514Z,7.50
2022-09-22T20:55:18.887Z,7.40
2022-09-22T20:57:48.428Z,7.40
2022-09-22T21:00:16.878Z,7.30
2022-09-22T21:02:45.301Z,7.30
2022-09-22T21:05:13.489Z,7.20
2022-09-22T21:07:41.709Z,7.20
2022-09-22T21:10:28.014Z,7.20
2022-09-22T21:12:58.527Z,7.10
2022-09-22T21:15:26.746Z,7.10
2022-09-22T21:17:54.962Z,7.10
2022-09-22T21:20:23.353Z,7.20
2022-09-22T21:22:52.930Z,7.10
2022-09-22T21:25:21.142Z,7.10
2022-09-22T21:27:49.282Z,7.10
2022-09-22T21:30:19.042Z,7.00
2022-09-22T21:32:47.920Z,6.90
2022-09-22T21:35:17.261Z,7.00
2022-09-22T21:37:45.746Z,7.00
2022-09-22T21:40:13.962Z,7.00
2022-09-22T21:42:42.261Z,7.00
2022-09-22T21:45:12.870Z,7.00
2022-09-22T21:47:42.518Z,7.00
2022-09-22T21:50:11.434Z,7.00
2022-09-22T21:52:39.776Z,7.00
2022-09-22T21:55:09.159Z,6.90
2022-09-22T21:57:37.214Z,6.90
2022-09-22T22:00:08.600Z,6.90
2022-09-22T22:02:57.704Z,6.90
2022-09-22T22:05:27.294Z,6.90
2022-09-22T22:07:55.290Z,6.80
2022-09-22T22:10:24.543Z,6.80
2022-09-22T22:12:52.732Z,6.80
2022-09-22T22:15:20.726Z,6.70
2022-09-22T22:17:48.743Z,6.70
2022-09-22T22:20:16.993Z,6.60
2022-09-22T22:22:46.758Z,6.60
2022-09-22T22:25:17.820Z,6.60
2022-09-22T22:27:46.579Z,6.50
2022-09-22T22:30:15.100Z,6.50
2022-09-22T22:32:43.238Z,6.50
2022-09-22T22:35:11.707Z,6.50
2022-09-22T22:37:39.864Z,6.50
2022-09-22T22:40:10.494Z,6.40
2022-09-22T22:42:38.558Z,6.40
2022-09-22T22:45:07.525Z,6.40
2022-09-22T22:47:35.581Z,6.30
2022-09-22T22:50:03.734Z,6.30
2022-09-22T22:52:31.731Z,6.30
2022-09-22T22:54:59.773Z,6.30
2022-09-22T22:57:29.765Z,6.20
2022-09-22T22:59:58.097Z,6.20
2022-09-22T23:02:26.247Z,6.20
2022-09-22T23:04:54.412Z,6.20
2022-09-22T23:07:22.433Z,6.10
2022-09-22T23:10:06.016Z,6.10
2022-09-22T23:12:37.094Z,6.20
2022-09-22T23:15:09.600Z,6.20
2022-09-22T23:17:37.694Z,6.20
2022-09-22T23:20:07.784Z,6.10
2022-09-22T23:22:35.928Z,6.10
2022-09-22T23:25:04.942Z,6.00
2022-09-22T23:27:32.991Z,6.00
2022-09-22T23:30:02.449Z,6.00
2022-09-22T23:32:30.521Z,6.10
2022-09-22T23:34:58.672Z,6.10
2022-09-22T23:37:26.782Z,6.10
2022-09-22T23:39:55.315Z,6.00
2022-09-22T23:42:24.260Z,6.10
2022-09-22T23:44:52.318Z,6.00
2022-09-22T23:47:21.739Z,6.10
2022-09-22T23:49:49.737Z,6.00
2022-09-22T23:52:17.721Z,6.00
2022-09-22T23:54:45.793Z,6.00
2022-09-22T23:57:13.824Z,6.00
2022-09-22T23:59:41.830Z,6.00
